createdAt,value
2023-02-02T00:02:22.420Z,14.65
2023-02-02T00:04:50.969Z,13.40
2023-02-02T00:07:22.137Z,12.85
2023-02-02T00:09:50.767Z,13.27
2023-02-02T00:12:20.530Z,13.95
2023-02-02T00:14:52.910Z,14.05
2023-02-02T00:17:21.366Z,13.30
2023-02-02T00:19:49.867Z,12.95
2023-02-02T00:25:22.043Z,13.18
2023-02-02T00:28:02.985Z,14.48
2023-02-02T00:30:33.094Z,12.65
2023-02-02T00:33:05.677Z,14.82
2023-02-02T00:35:34.229Z,12.50
2023-02-02T00:38:03.689Z,13.70
2023-02-02T00:40:32.187Z,13.65
2023-02-02T00:43:02.429Z,13.65
2023-02-02T00:45:33.276Z,14.13
2023-02-02T00:48:01.909Z,14.38
2023-02-02T00:50:30.722Z,14.35
2023-02-02T00:52:59.364Z,13.70
2023-02-02T01:00:27.364Z,13.55
2023-02-02T01:03:04.345Z,13.85
2023-02-02T01:05:33.158Z,13.15
2023-02-02T01:08:01.804Z,14.88
2023-02-02T01:10:30.518Z,14.00
2023-02-02T01:12:59.030Z,14.00
2023-02-02T01:15:27.489Z,14.55
2023-02-02T01:17:58.683Z,14.27
2023-02-02T01:20:27.209Z,13.77
2023-02-02T01:22:55.821Z,15.63
2023-02-02T01:25:24.713Z,14.25
2023-02-02T01:27:55.499Z,15.80
2023-02-02T01:30:27.388Z,15.30
2023-02-02T01:32:59.153Z,14.95
2023-02-02T01:35:27.810Z,15.52
2023-02-02T01:37:56.776Z,15.05
2023-02-02T01:43:53.054Z,14.50
2023-02-02T01:46:27.671Z,14.25
2023-02-02T01:49:07.578Z,15.73
2023-02-02T01:51:42.300Z,14.43
2023-02-02T01:54:15.405Z,14.93
2023-02-02T01:56:49.555Z,14.70
2023-02-02T01:59:19.539Z,14.45
2023-02-02T02:01:50.192Z,15.27
2023-02-02T02:04:21.166Z,15.60
2023-02-02T02:06:52.012Z,17.17
2023-02-02T02:09:21.353Z,15.85
2023-02-02T02:11:50.116Z,15.50
2023-02-02T02:14:36.149Z,15.48
2023-02-02T02:17:16.150Z,15.77
2023-02-02T02:20:50.667Z,15.68
2023-02-02T02:24:14.171Z,13.70
2023-02-02T02:27:06.813Z,14.55
2023-02-02T02:30:07.821Z,14.48
2023-02-02T02:32:46.112Z,14.10
2023-02-02T02:35:24.878Z,14.50
2023-02-02T02:38:00.861Z,14.85
2023-02-02T02:40:36.441Z,14.43
2023-02-02T02:43:10.997Z,15.20
2023-02-02T02:45:40.583Z,15.55
2023-02-02T02:48:19.203Z,14.75
2023-02-02T02:51:47.854Z,14.35
2023-02-02T02:54:30.274Z,13.90
2023-02-02T02:57:20.041Z,15.13
2023-02-02T02:59:58.470Z,14.43
2023-02-02T03:05:12.662Z,14.20
2023-02-02T03:07:46.000Z,13.25
2023-02-02T03:10:18.593Z,14.20
2023-02-02T03:12:48.792Z,13.57
2023-02-02T03:15:17.937Z,14.60
2023-02-02T03:17:49.233Z,14.23
2023-02-02T03:20:22.947Z,13.82
2023-02-02T03:22:51.476Z,14.13
2023-02-02T03:25:19.901Z,13.15
2023-02-02T03:28:00.484Z,13.75
2023-02-02T03:30:33.190Z,13.63
2023-02-02T03:33:02.216Z,13.20
2023-02-02T03:35:32.294Z,13.15
2023-02-02T03:38:04.005Z,12.25
2023-02-02T03:40:32.677Z,12.75
2023-02-02T03:43:01.191Z,12.82
2023-02-02T03:50:30.203Z,11.52
2023-02-02T03:53:07.604Z,11.70
2023-02-02T03:55:40.664Z,12.75
2023-02-02T03:58:09.411Z,12.32
2023-02-02T04:03:06.130Z,11.50
2023-02-02T04:08:06.414Z,11.77
2023-02-02T04:10:34.964Z,11.27
2023-02-02T04:15:32.623Z,12.20
2023-02-02T04:18:01.965Z,11.77
2023-02-02T04:20:36.817Z,11.02
2023-02-02T04:23:06.822Z,11.93
2023-02-02T04:25:36.553Z,11.45
2023-02-02T04:28:07.812Z,11.30
2023-02-02T04:30:37.818Z,11.85
2023-02-02T04:33:17.424Z,11.88
2023-02-02T04:35:46.282Z,11.10
2023-02-02T04:40:46.788Z,11.43
2023-02-02T04:43:15.595Z,13.63
2023-02-02T04:48:12.448Z,11.10
2023-02-02T04:53:09.169Z,10.90
2023-02-02T04:58:08.189Z,11.43
2023-02-02T05:03:05.062Z,10.63
2023-02-02T05:08:01.630Z,10.48
2023-02-02T05:10:30.225Z,11.13
2023-02-02T05:15:28.271Z,10.35
2023-02-02T05:17:56.644Z,11.35
2023-02-02T05:20:33.889Z,9.48
2023-02-02T05:23:02.428Z,10.60
2023-02-02T05:25:30.893Z,10.57
2023-02-02T05:28:01.008Z,11.02
2023-02-02T05:30:29.994Z,9.93
2023-02-02T05:32:58.883Z,11.45
2023-02-02T05:35:27.688Z,10.15
2023-02-02T05:37:59.397Z,9.82
2023-02-02T05:40:27.988Z,10.75
2023-02-02T05:42:56.636Z,10.02
2023-02-02T05:45:26.762Z,9.38
2023-02-02T05:48:32.222Z,10.75
2023-02-02T05:52:08.036Z,11.18
2023-02-02T05:54:36.547Z,9.95
2023-02-02T05:57:32.127Z,10.25
2023-02-02T06:00:10.193Z,11.45
2023-02-02T06:02:54.590Z,10.18
2023-02-02T06:05:26.374Z,10.23
2023-02-02T06:07:57.453Z,9.60
2023-02-02T06:10:26.036Z,10.18
2023-02-02T06:12:54.533Z,9.77
2023-02-02T06:15:23.331Z,10.73
2023-02-02T06:17:53.458Z,12.70
2023-02-02T06:20:22.562Z,11.48
2023-02-02T06:22:51.909Z,12.15
2023-02-02T06:25:20.354Z,10.43
2023-02-02T06:27:49.637Z,10.18
2023-02-02T06:30:18.428Z,10.98
2023-02-02T06:32:46.912Z,10.25
2023-02-02T06:35:17.031Z,10.23
2023-02-02T06:37:45.629Z,10.77
2023-02-02T06:42:51.490Z,10.93
2023-02-02T06:45:23.630Z,11.85
2023-02-02T06:47:53.823Z,11.02
2023-02-02T06:50:48.290Z,11.13
2023-02-02T06:53:26.569Z,12.07
2023-02-02T06:56:03.318Z,11.90
2023-02-02T06:58:35.827Z,11.63
2023-02-02T07:01:09.107Z,11.80
2023-02-02T07:03:40.720Z,12.10
2023-02-02T07:06:17.052Z,10.93
2023-02-02T07:08:53.119Z,10.15
2023-02-02T07:11:41.677Z,10.18
2023-02-02T07:14:16.451Z,10.23
2023-02-02T07:16:45.179Z,10.00
2023-02-02T07:21:43.376Z,10.07
2023-02-02T07:24:12.079Z,10.48
2023-02-02T07:26:40.787Z,10.85
2023-02-02T07:29:15.672Z,10.30
2023-02-02T07:31:44.348Z,10.02
2023-02-02T07:36:42.550Z,10.02
2023-02-02T07:39:11.125Z,11.68
2023-02-02T07:41:39.667Z,10.43
2023-02-02T07:44:17.986Z,10.50
2023-02-02T07:46:48.169Z,12.68
2023-02-02T07:49:20.149Z,11.32
2023-02-02T07:51:50.153Z,11.13
2023-02-02T07:54:18.637Z,11.88
2023-02-02T07:56:47.148Z,12.13
2023-02-02T07:59:15.598Z,11.85
2023-02-02T08:01:44.181Z,11.73
2023-02-02T08:06:41.543Z,10.25
2023-02-02T08:09:11.698Z,11.88
2023-02-02T08:11:40.814Z,11.43
2023-02-02T08:14:09.524Z,12.75
2023-02-02T08:19:06.366Z,11.95
2023-02-02T08:21:35.065Z,12.48
2023-02-02T08:26:34.570Z,12.65
2023-02-02T08:29:06.540Z,11.32
2023-02-02T08:31:37.335Z,12.82
2023-02-02T08:34:07.404Z,11.80
2023-02-02T08:36:36.523Z,12.20
2023-02-02T08:39:06.475Z,13.38
2023-02-02T08:41:37.079Z,12.82
2023-02-02T08:44:09.916Z,13.00
2023-02-02T08:46:40.077Z,13.05
2023-02-02T08:49:11.849Z,13.45
2023-02-02T08:51:40.849Z,14.02
2023-02-02T08:56:40.054Z,13.82
2023-02-02T08:59:08.654Z,13.82
2023-02-02T09:01:37.593Z,12.95
2023-02-02T09:04:07.752Z,12.75
2023-02-02T09:06:40.868Z,12.27
2023-02-02T09:09:11.913Z,13.32
2023-02-02T09:11:43.815Z,14.18
2023-02-02T09:14:14.254Z,12.90
2023-02-02T09:16:43.309Z,12.77
2023-02-02T09:19:17.711Z,13.50
2023-02-02T09:24:29.488Z,12.40
2023-02-02T09:26:59.392Z,10.77
2023-02-02T09:29:27.851Z,12.68
2023-02-02T09:31:56.340Z,11.23
2023-02-02T09:34:24.889Z,11.98
2023-02-02T09:36:54.495Z,11.73
2023-02-02T09:39:22.950Z,12.35
2023-02-02T09:42:29.237Z,12.93
2023-02-02T09:45:04.777Z,11.43
2023-02-02T09:47:55.576Z,11.77
2023-02-02T09:50:41.597Z,11.25
2023-02-02T09:53:24.377Z,12.38
2023-02-02T09:55:55.421Z,11.25
2023-02-02T09:58:29.261Z,11.32
2023-02-02T10:01:04.111Z,10.90
2023-02-02T10:03:39.045Z,10.75
2023-02-02T10:06:19.002Z,10.98
2023-02-02T10:08:53.999Z,10.93
2023-02-02T10:11:32.580Z,10.07
2023-02-02T10:14:09.011Z,10.18
2023-02-02T10:16:41.154Z,11.73
2023-02-02T10:19:13.889Z,11.93
2023-02-02T10:21:49.515Z,12.75
2023-02-02T10:24:24.702Z,11.68
2023-02-02T10:26:55.951Z,10.77
2023-02-02T10:29:48.622Z,10.18
2023-02-02T10:32:27.444Z,11.82
2023-02-02T10:35:14.357Z,11.07
2023-02-02T10:37:51.468Z,10.82
2023-02-02T10:40:34.379Z,10.18
2023-02-02T10:43:38.136Z,11.30
2023-02-02T10:46:15.754Z,11.65
2023-02-02T10:48:47.643Z,10.63
2023-02-02T10:51:21.710Z,11.50
2023-02-02T10:53:54.715Z,10.63
2023-02-02T10:56:32.365Z,10.35
2023-02-02T10:59:06.068Z,10.70
2023-02-02T11:01:36.271Z,9.77
2023-02-02T11:04:26.455Z,10.48
2023-02-02T11:06:55.278Z,11.45
2023-02-02T11:09:31.983Z,10.80
2023-02-02T11:12:06.875Z,10.70
2023-02-02T11:14:45.428Z,11.23
2023-02-02T11:17:27.088Z,11.57
2023-02-02T11:20:25.067Z,10.35
2023-02-02T11:23:03.306Z,11.35
2023-02-02T11:25:35.282Z,7.93
2023-02-02T11:28:21.666Z,10.95
2023-02-02T11:30:52.712Z,9.73
2023-02-02T11:33:29.295Z,9.30
2023-02-02T11:36:01.962Z,10.10
2023-02-02T11:38:31.090Z,9.45
2023-02-02T11:41:03.983Z,10.10
2023-02-02T11:43:42.947Z,10.45
2023-02-02T11:46:24.916Z,10.63
2023-02-02T11:49:02.611Z,10.00
2023-02-02T11:51:34.532Z,10.80
2023-02-02T11:54:06.577Z,11.60
2023-02-02T11:56:38.419Z,13.20
2023-02-02T11:59:07.531Z,13.13
2023-02-02T12:01:39.920Z,10.90
2023-02-02T12:04:26.779Z,10.50
2023-02-02T12:07:25.733Z,9.85
2023-02-02T12:10:06.585Z,10.52
2023-02-02T12:12:46.475Z,10.88
2023-02-02T12:15:27.307Z,12.02
2023-02-02T12:18:07.143Z,10.13
2023-02-02T12:20:47.535Z,11.15
2023-02-02T12:23:39.294Z,10.00
2023-02-02T12:26:19.254Z,10.80
2023-02-02T12:29:14.152Z,10.57
2023-02-02T12:31:51.247Z,10.23
2023-02-02T12:34:31.393Z,9.75
2023-02-02T12:37:08.288Z,11.00
2023-02-02T12:39:51.584Z,10.88
2023-02-02T12:42:38.249Z,10.15
2023-02-02T12:45:24.924Z,10.23
2023-02-02T12:48:07.559Z,10.07
2023-02-02T12:50:46.907Z,11.32
2023-02-02T12:53:30.565Z,10.98
2023-02-02T12:56:07.899Z,10.98
2023-02-02T12:58:44.527Z,9.60
2023-02-02T13:01:26.640Z,11.48
2023-02-02T13:04:29.106Z,11.88
2023-02-02T13:07:30.239Z,11.30
2023-02-02T13:10:13.102Z,12.13
2023-02-02T13:12:46.006Z,10.52
2023-02-02T13:15:23.625Z,10.70
2023-02-02T13:17:56.295Z,12.02
2023-02-02T13:20:33.383Z,10.75
2023-02-02T13:23:10.343Z,11.75
2023-02-02T13:25:48.551Z,11.98
2023-02-02T13:28:32.049Z,11.15
2023-02-02T13:31:08.041Z,10.90
2023-02-02T13:33:39.096Z,12.60
2023-02-02T13:36:15.905Z,10.25
2023-02-02T13:38:46.108Z,12.27
2023-02-02T13:41:17.330Z,11.88
2023-02-02T13:43:54.222Z,11.60
2023-02-02T13:46:31.872Z,11.35
2023-02-02T13:49:08.831Z,12.20
2023-02-02T13:51:51.175Z,11.27
2023-02-02T13:55:01.325Z,12.23
2023-02-02T13:57:53.412Z,13.05
2023-02-02T14:00:25.251Z,11.95
2023-02-02T14:02:56.261Z,12.60
2023-02-02T14:05:28.628Z,11.85
2023-02-02T14:08:03.106Z,12.60
2023-02-02T14:10:35.547Z,11.13
2023-02-02T14:13:35.263Z,11.48
2023-02-02T14:16:06.621Z,12.93
2023-02-02T14:18:55.524Z,12.35
2023-02-02T14:22:00.817Z,12.82
2023-02-02T14:24:50.170Z,12.20
2023-02-02T14:27:56.121Z,12.70
2023-02-02T14:30:34.779Z,13.77
2023-02-02T14:33:38.482Z,13.45
2023-02-02T14:36:18.173Z,12.43
2023-02-02T14:39:09.722Z,13.98
2023-02-02T14:42:21.364Z,12.43
2023-02-02T14:45:16.942Z,12.35
2023-02-02T14:47:52.591Z,13.55
2023-02-02T14:50:28.309Z,12.68
2023-02-02T14:53:08.560Z,13.77
2023-02-02T14:55:50.790Z,13.65
2023-02-02T14:58:26.111Z,12.32
2023-02-02T15:01:06.812Z,13.00
2023-02-02T15:03:49.839Z,11.93
2023-02-02T15:06:34.040Z,11.32
2023-02-02T15:09:29.454Z,13.13
2023-02-02T15:12:25.284Z,11.57
2023-02-02T15:15:18.552Z,12.52
2023-02-02T15:18:04.024Z,13.00
2023-02-02T15:20:48.912Z,12.15
2023-02-02T15:23:31.237Z,12.82
2023-02-02T15:26:06.048Z,13.13
2023-02-02T15:28:43.443Z,10.98
2023-02-02T15:31:20.553Z,12.43
2023-02-02T15:33:52.038Z,11.60
2023-02-02T15:36:26.985Z,12.80
2023-02-02T15:38:59.176Z,13.80
2023-02-02T15:41:33.511Z,14.07
2023-02-02T15:44:03.006Z,11.55
2023-02-02T15:46:36.019Z,14.55
2023-02-02T15:49:35.308Z,12.70
2023-02-02T15:52:15.518Z,12.20
2023-02-02T15:54:54.011Z,12.82
2023-02-02T15:59:57.774Z,12.52
2023-02-02T16:02:37.235Z,11.25
2023-02-02T16:05:37.557Z,13.02
2023-02-02T16:08:38.289Z,13.48
2023-02-02T16:11:14.580Z,11.88
2023-02-02T16:14:00.554Z,12.77
2023-02-02T16:16:39.201Z,12.25
2023-02-02T16:19:22.309Z,11.85
2023-02-02T16:22:04.581Z,12.48
2023-02-02T16:24:53.002Z,12.15
2023-02-02T16:27:25.219Z,12.07
2023-02-02T16:30:12.359Z,11.10
2023-02-02T16:32:42.264Z,11.73
2023-02-02T16:35:47.410Z,11.63
2023-02-02T16:38:27.026Z,12.55
2023-02-02T16:41:20.832Z,11.85
2023-02-02T16:43:52.173Z,12.32
2023-02-02T16:46:47.070Z,13.18
2023-02-02T16:49:33.543Z,11.80
2023-02-02T16:52:28.362Z,11.57
2023-02-02T16:55:05.296Z,12.85
2023-02-02T16:57:43.070Z,13.15
2023-02-02T17:00:37.398Z,10.93
2023-02-02T17:03:11.478Z,10.45
2023-02-02T17:06:01.902Z,12.00
2023-02-02T17:08:38.632Z,11.98
2023-02-02T17:11:29.333Z,12.57
2023-02-02T17:14:22.034Z,10.00
2023-02-02T17:16:50.891Z,12.38
2023-02-02T17:19:29.830Z,12.15
2023-02-02T17:22:05.408Z,10.98
2023-02-02T17:24:36.412Z,10.65
2023-02-02T17:27:11.705Z,11.52
2023-02-02T17:32:57.538Z,12.35
2023-02-02T17:35:39.933Z,9.30
2023-02-02T17:38:24.213Z,12.18
2023-02-02T17:41:08.299Z,11.93
2023-02-02T17:43:44.221Z,11.20
2023-02-02T17:46:14.848Z,11.98
2023-02-02T17:48:44.212Z,13.52
2023-02-02T17:51:24.464Z,11.88
2023-02-02T17:54:05.829Z,9.65
2023-02-02T17:57:22.498Z,12.27
2023-02-02T17:59:53.185Z,11.73
2023-02-02T18:02:26.466Z,10.68
2023-02-02T18:04:57.199Z,11.65
2023-02-02T18:07:32.576Z,11.65
2023-02-02T18:10:16.399Z,9.65
2023-02-02T18:13:07.379Z,11.60
2023-02-02T18:15:50.946Z,11.30
2023-02-02T18:19:12.134Z,11.07
2023-02-02T18:22:02.204Z,10.60
2023-02-02T18:24:36.613Z,11.80
2023-02-02T18:27:12.038Z,12.10
2023-02-02T18:29:53.963Z,11.25
2023-02-02T18:32:32.301Z,10.82
2023-02-02T18:35:03.118Z,11.82
2023-02-02T18:37:59.786Z,12.43
2023-02-02T18:40:29.563Z,11.77
2023-02-02T18:43:04.424Z,12.85
2023-02-02T18:46:23.560Z,12.20
2023-02-02T18:48:56.690Z,11.20
2023-02-02T18:51:25.473Z,11.88
2023-02-02T18:56:32.526Z,11.80
2023-02-02T18:59:12.082Z,11.82
2023-02-02T19:01:46.093Z,12.43
2023-02-02T19:04:32.662Z,12.10
2023-02-02T19:07:27.456Z,13.15
2023-02-02T19:09:58.186Z,12.35
2023-02-02T19:12:29.641Z,12.90
2023-02-02T19:15:00.830Z,12.38
2023-02-02T19:17:36.826Z,12.63
2023-02-02T19:20:26.247Z,13.10
2023-02-02T19:23:03.974Z,11.80
2023-02-02T19:25:37.566Z,11.38
2023-02-02T19:28:14.546Z,12.00
2023-02-02T19:30:51.793Z,12.32
2023-02-02T19:33:23.464Z,13.20
2023-02-02T19:35:55.517Z,12.27
2023-02-02T19:38:33.022Z,12.85
2023-02-02T19:41:16.819Z,13.13
2023-02-02T19:43:47.956Z,12.35
2023-02-02T19:46:24.706Z,12.88
2023-02-02T19:48:58.071Z,13.07
2023-02-02T19:51:36.145Z,12.80
2023-02-02T19:54:08.713Z,13.18
2023-02-02T19:56:43.733Z,12.23
2023-02-02T19:59:17.758Z,14.18
2023-02-02T20:01:53.042Z,13.07
2023-02-02T20:04:24.835Z,13.83
2023-02-02T20:07:04.059Z,13.27
2023-02-02T20:10:56.615Z,13.88
2023-02-02T20:13:57.644Z,12.50
2023-02-02T20:16:39.654Z,15.20
2023-02-02T20:19:37.359Z,14.38
2023-02-02T20:22:23.629Z,12.02
2023-02-02T20:25:21.178Z,13.95
2023-02-02T20:27:50.163Z,13.90
2023-02-02T20:30:28.544Z,13.40
2023-02-02T20:35:40.935Z,12.68
2023-02-02T20:38:23.990Z,13.32
2023-02-02T20:40:53.516Z,14.23
2023-02-02T20:43:22.511Z,13.18
2023-02-02T20:45:53.758Z,14.10
2023-02-02T20:48:25.814Z,13.90
2023-02-02T20:50:54.731Z,13.75
2023-02-02T20:53:23.484Z,14.77
2023-02-02T20:55:58.345Z,13.75
2023-02-02T20:58:27.036Z,14.02
2023-02-02T21:03:41.303Z,13.02
2023-02-02T21:06:11.881Z,13.63
2023-02-02T21:08:40.497Z,13.85
2023-02-02T21:11:09.209Z,13.02
2023-02-02T21:13:40.382Z,13.00
2023-02-02T21:16:09.706Z,13.70
2023-02-02T21:18:38.228Z,13.20
2023-02-02T21:21:08.219Z,12.68
2023-02-02T21:23:36.848Z,12.77
2023-02-02T21:28:33.731Z,14.05
2023-02-02T21:31:02.706Z,14.57
2023-02-02T21:33:31.497Z,13.52
2023-02-02T21:36:01.176Z,13.90
2023-02-02T21:38:32.122Z,14.43
2023-02-02T21:41:00.721Z,13.40
2023-02-02T21:43:29.260Z,13.85
2023-02-02T21:45:57.802Z,13.07
2023-02-02T21:50:58.710Z,13.50
2023-02-02T21:53:28.768Z,14.77
2023-02-02T21:56:00.455Z,15.30
2023-02-02T21:58:37.516Z,12.88
2023-02-02T22:01:19.269Z,15.27
2023-02-02T22:03:49.980Z,13.93
2023-02-02T22:06:27.191Z,13.27
2023-02-02T22:09:02.399Z,13.07
2023-02-02T22:11:41.589Z,14.48
2023-02-02T22:14:18.790Z,13.88
2023-02-02T22:16:50.341Z,14.07
2023-02-02T22:19:28.116Z,14.82
2023-02-02T22:22:15.469Z,13.60
2023-02-02T22:24:46.073Z,14.55
2023-02-02T22:27:24.408Z,14.27
2023-02-02T22:29:59.542Z,14.77
2023-02-02T22:32:31.119Z,15.27
2023-02-02T22:34:59.860Z,14.18
2023-02-02T22:39:56.519Z,14.55
2023-02-02T22:42:26.420Z,14.20
2023-02-02T22:44:54.916Z,13.75
2023-02-02T22:47:23.431Z,14.02
2023-02-02T22:49:51.898Z,12.32
2023-02-02T22:52:20.606Z,14.10
2023-02-02T22:54:48.983Z,15.00
2023-02-02T22:57:17.451Z,14.63
2023-02-02T22:59:47.303Z,13.20
2023-02-02T23:02:15.762Z,15.43
2023-02-02T23:04:44.211Z,16.33
2023-02-02T23:07:12.696Z,14.63
2023-02-02T23:09:41.217Z,15.20
2023-02-02T23:12:09.959Z,15.75
2023-02-02T23:14:38.405Z,13.10
2023-02-02T23:17:08.882Z,13.48
2023-02-02T23:19:37.456Z,14.00
2023-02-02T23:22:05.833Z,14.98
2023-02-02T23:24:34.364Z,14.93
2023-02-02T23:27:02.871Z,14.32
2023-02-02T23:29:31.430Z,13.35
2023-02-02T23:31:59.854Z,14.73
2023-02-02T23:34:29.757Z,17.35
2023-02-02T23:36:58.250Z,15.25
2023-02-02T23:39:26.720Z,14.73
2023-02-02T23:41:55.248Z,13.98
2023-02-02T23:44:23.762Z,14.30
2023-02-02T23:46:53.545Z,15.15
2023-02-02T23:49:22.670Z,14.40
2023-02-02T23:51:53.143Z,14.75
2023-02-02T23:54:21.743Z,14.55
2023-02-02T23:56:51.591Z,13.80
2023-02-02T23:59:20.106Z,14.10
